sensor_id;sensor_type;location;lat;lon;timestamp;noise_LAeq;noise_LA_min;noise_LA_max;noise_LA01;noise_LA95
37163;Laerm;23057;48.554;14.454;2023-11-21T00:01:47;37.45;32.93;43.19;;
37163;Laerm;23057;48.554;14.454;2023-11-21T00:04:18;37.43;32.35;40.53;;
37163;Laerm;23057;48.554;14.454;2023-11-21T00:06:49;37.40;33.44;40.80;;
37163;Laerm;23057;48.554;14.454;2023-11-21T00:09:20;37.41;33.44;39.92;;
37163;Laerm;23057;48.554;14.454;2023-11-21T00:11:50;37.40;32.93;40.03;;
37163;Laerm;23057;48.554;14.454;2023-11-21T00:14:21;37.40;32.35;39.92;;
37163;Laerm;23057;48.554;14.454;2023-11-21T00:16:52;37.41;32.35;40.33;;
37163;Laerm;23057;48.554;14.454;2023-11-21T00:19:23;37.39;32.93;41.06;;
37163;Laerm;23057;48.554;14.454;2023-11-21T00:21:53;37.43;33.55;40.03;;
37163;Laerm;23057;48.554;14.454;2023-11-21T00:24:25;37.43;32.93;40.33;;
37163;Laerm;23057;48.554;14.454;2023-11-21T00:26:56;37.45;33.90;40.13;;
37163;Laerm;23057;48.554;14.454;2023-11-21T00:29:27;37.45;33.90;39.81;;
37163;Laerm;23057;48.554;14.454;2023-11-21T00:31:58;37.45;33.44;40.03;;
37163;Laerm;23057;48.554;14.454;2023-11-21T00:34:28;37.47;32.93;40.03;;
37163;Laerm;23057;48.554;14.454;2023-11-21T00:37:00;37.45;33.44;40.33;;
37163;Laerm;23057;48.554;14.454;2023-11-21T00:39:31;37.45;33.44;39.81;;
37163;Laerm;23057;48.554;14.454;2023-11-21T00:42:04;37.46;34.31;39.92;;
37163;Laerm;23057;48.554;14.454;2023-11-21T00:44:38;37.48;33.90;40.13;;
37163;Laerm;23057;48.554;14.454;2023-11-21T00:47:10;37.47;33.90;40.23;;
37163;Laerm;23057;48.554;14.454;2023-11-21T00:49:41;37.49;32.93;40.13;;
37163;Laerm;23057;48.554;14.454;2023-11-21T00:52:12;37.48;32.93;40.23;;
37163;Laerm;23057;48.554;14.454;2023-11-21T00:54:42;37.47;33.44;40.23;;
37163;Laerm;23057;48.554;14.454;2023-11-21T00:57:14;37.47;32.93;40.03;;
37163;Laerm;23057;48.554;14.454;2023-11-21T00:59:44;37.49;33.44;39.92;;
37163;Laerm;23057;48.554;14.454;2023-11-21T01:02:15;37.47;32.93;40.03;;
37163;Laerm;23057;48.554;14.454;2023-11-21T01:04:46;37.47;32.93;40.27;;
37163;Laerm;23057;48.554;14.454;2023-11-21T01:07:18;37.47;32.35;40.03;;
37163;Laerm;23057;48.554;14.454;2023-11-21T01:09:50;37.48;33.90;40.03;;
37163;Laerm;23057;48.554;14.454;2023-11-21T01:12:21;37.44;33.44;40.62;;
37163;Laerm;23057;48.554;14.454;2023-11-21T01:14:52;37.44;32.93;40.13;;
37163;Laerm;23057;48.554;14.454;2023-11-21T01:17:23;37.46;32.93;39.92;;
37163;Laerm;23057;48.554;14.454;2023-11-21T01:19:54;37.48;33.44;40.23;;
37163;Laerm;23057;48.554;14.454;2023-11-21T01:22:25;37.46;33.90;40.23;;
37163;Laerm;23057;48.554;14.454;2023-11-21T01:24:56;37.46;33.90;39.81;;
37163;Laerm;23057;48.554;14.454;2023-11-21T01:27:28;37.47;31.68;39.92;;
37163;Laerm;23057;48.554;14.454;2023-11-21T01:29:59;37.47;32.93;40.33;;
37163;Laerm;23057;48.554;14.454;2023-11-21T01:32:30;37.49;34.31;40.13;;
37163;Laerm;23057;48.554;14.454;2023-11-21T01:35:00;37.48;32.93;40.03;;
37163;Laerm;23057;48.554;14.454;2023-11-21T01:37:32;37.47;32.35;40.13;;
37163;Laerm;23057;48.554;14.454;2023-11-21T01:40:04;37.50;34.31;40.23;;
37163;Laerm;23057;48.554;14.454;2023-11-21T01:42:42;37.50;33.90;40.23;;
37163;Laerm;23057;48.554;14.454;2023-11-21T01:45:18;37.53;33.44;40.33;;
37163;Laerm;23057;48.554;14.454;2023-11-21T01:47:48;37.50;33.44;40.03;;
37163;Laerm;23057;48.554;14.454;2023-11-21T01:50:20;37.53;31.68;39.81;;
37163;Laerm;23057;48.554;14.454;2023-11-21T01:52:53;37.52;33.44;39.92;;
37163;Laerm;23057;48.554;14.454;2023-11-21T01:55:24;37.49;32.93;40.43;;
37163;Laerm;23057;48.554;14.454;2023-11-21T01:57:57;37.50;33.44;40.33;;
37163;Laerm;23057;48.554;14.454;2023-11-21T02:00:28;37.52;32.35;40.03;;
37163;Laerm;23057;48.554;14.454;2023-11-21T02:03:01;37.48;32.93;40.23;;
37163;Laerm;23057;48.554;14.454;2023-11-21T02:05:33;37.52;34.31;40.03;;
37163;Laerm;23057;48.554;14.454;2023-11-21T02:08:04;37.50;33.55;40.23;;
37163;Laerm;23057;48.554;14.454;2023-11-21T02:10:35;37.50;33.44;40.33;;
37163;Laerm;23057;48.554;14.454;2023-11-21T02:13:07;37.50;32.35;40.03;;
37163;Laerm;23057;48.554;14.454;2023-11-21T02:15:38;37.51;33.44;40.33;;
37163;Laerm;23057;48.554;14.454;2023-11-21T02:18:09;37.55;32.93;40.43;;
37163;Laerm;23057;48.554;14.454;2023-11-21T02:20:41;37.52;34.31;39.81;;
37163;Laerm;23057;48.554;14.454;2023-11-21T02:23:13;37.53;32.35;40.03;;
37163;Laerm;23057;48.554;14.454;2023-11-21T02:25:45;37.54;34.31;40.33;;
37163;Laerm;23057;48.554;14.454;2023-11-21T02:28:15;37.57;33.09;40.33;;
37163;Laerm;23057;48.554;14.454;2023-11-21T02:30:56;37.52;33.44;40.13;;
37163;Laerm;23057;48.554;14.454;2023-11-21T02:33:28;37.57;33.90;40.23;;
37163;Laerm;23057;48.554;14.454;2023-11-21T02:36:02;37.54;32.93;40.23;;
37163;Laerm;23057;48.554;14.454;2023-11-21T02:38:33;37.53;33.90;40.23;;
37163;Laerm;23057;48.554;14.454;2023-11-21T02:41:04;37.54;34.31;39.92;;
37163;Laerm;23057;48.554;14.454;2023-11-21T02:43:35;37.51;32.93;40.53;;
37163;Laerm;23057;48.554;14.454;2023-11-21T02:46:06;37.50;32.93;40.23;;
37163;Laerm;23057;48.554;14.454;2023-11-21T02:48:37;37.53;33.90;39.92;;
37163;Laerm;23057;48.554;14.454;2023-11-21T02:51:08;37.49;33.90;40.62;;
37163;Laerm;23057;48.554;14.454;2023-11-21T02:53:39;37.50;32.35;40.62;;
37163;Laerm;23057;48.554;14.454;2023-11-21T02:56:10;37.47;33.90;40.13;;
37163;Laerm;23057;48.554;14.454;2023-11-21T02:58:44;37.47;32.93;40.13;;
37163;Laerm;23057;48.554;14.454;2023-11-21T03:01:15;37.48;33.90;39.92;;
37163;Laerm;23057;48.554;14.454;2023-11-21T03:03:45;37.48;33.90;40.23;;
37163;Laerm;23057;48.554;14.454;2023-11-21T03:06:22;37.47;33.90;40.23;;
37163;Laerm;23057;48.554;14.454;2023-11-21T03:08:54;37.48;33.90;40.03;;
37163;Laerm;23057;48.554;14.454;2023-11-21T03:11:25;37.47;33.44;40.13;;
37163;Laerm;23057;48.554;14.454;2023-11-21T03:13:55;37.49;33.44;40.13;;
37163;Laerm;23057;48.554;14.454;2023-11-21T03:16:26;37.45;33.90;39.81;;
37163;Laerm;23057;48.554;14.454;2023-11-21T03:18:57;37.47;32.35;39.92;;
37163;Laerm;23057;48.554;14.454;2023-11-21T03:21:29;37.45;32.93;39.92;;
37163;Laerm;23057;48.554;14.454;2023-11-21T03:24:00;37.44;33.44;40.33;;
37163;Laerm;23057;48.554;14.454;2023-11-21T03:26:30;37.46;32.93;39.99;;
37163;Laerm;23057;48.554;14.454;2023-11-21T03:29:01;37.45;33.44;40.23;;
37163;Laerm;23057;48.554;14.454;2023-11-21T03:31:32;37.41;33.09;39.81;;
37163;Laerm;23057;48.554;14.454;2023-11-21T03:34:03;37.41;33.44;40.13;;
37163;Laerm;23057;48.554;14.454;2023-11-21T03:36:34;37.43;33.44;40.03;;
37163;Laerm;23057;48.554;14.454;2023-11-21T03:39:05;37.42;33.44;40.03;;
37163;Laerm;23057;48.554;14.454;2023-11-21T03:41:35;37.42;32.93;40.03;;
37163;Laerm;23057;48.554;14.454;2023-11-21T03:44:06;37.42;32.93;40.03;;
37163;Laerm;23057;48.554;14.454;2023-11-21T03:46:37;37.42;33.44;39.92;;
37163;Laerm;23057;48.554;14.454;2023-11-21T03:49:08;37.42;33.44;40.03;;
37163;Laerm;23057;48.554;14.454;2023-11-21T03:51:39;37.42;33.90;39.92;;
37163;Laerm;23057;48.554;14.454;2023-11-21T03:54:10;37.41;33.44;39.92;;
37163;Laerm;23057;48.554;14.454;2023-11-21T03:56:41;37.44;33.44;39.70;;
37163;Laerm;23057;48.554;14.454;2023-11-21T03:59:12;37.43;33.90;40.03;;
37163;Laerm;23057;48.554;14.454;2023-11-21T04:01:43;37.42;33.44;40.23;;
37163;Laerm;23057;48.554;14.454;2023-11-21T04:04:14;37.40;33.90;40.13;;
37163;Laerm;23057;48.554;14.454;2023-11-21T04:06:44;37.38;32.93;39.92;;
37163;Laerm;23057;48.554;14.454;2023-11-21T04:09:15;37.41;33.90;39.81;;
37163;Laerm;23057;48.554;14.454;2023-11-21T04:11:46;37.43;32.35;39.81;;
37163;Laerm;23057;48.554;14.454;2023-11-21T04:14:18;37.42;33.44;40.03;;
37163;Laerm;23057;48.554;14.454;2023-11-21T04:16:49;37.44;33.90;39.92;;
37163;Laerm;23057;48.554;14.454;2023-11-21T04:19:20;37.45;33.44;40.03;;
37163;Laerm;23057;48.554;14.454;2023-11-21T04:21:51;37.42;32.93;39.81;;
37163;Laerm;23057;48.554;14.454;2023-11-21T04:24:22;37.44;32.93;40.03;;
37163;Laerm;23057;48.554;14.454;2023-11-21T04:26:52;37.44;32.35;40.33;;
37163;Laerm;23057;48.554;14.454;2023-11-21T04:29:24;37.41;32.93;40.03;;
37163;Laerm;23057;48.554;14.454;2023-11-21T04:31:54;37.46;32.93;40.43;;
37163;Laerm;23057;48.554;14.454;2023-11-21T04:34:25;37.42;32.93;40.80;;
37163;Laerm;23057;48.554;14.454;2023-11-21T04:36:57;37.41;33.90;39.92;;
37163;Laerm;23057;48.554;14.454;2023-11-21T04:39:27;37.39;33.44;39.81;;
37163;Laerm;23057;48.554;14.454;2023-11-21T04:41:58;37.39;33.44;39.81;;
37163;Laerm;23057;48.554;14.454;2023-11-21T04:44:29;37.39;33.90;39.81;;
37163;Laerm;23057;48.554;14.454;2023-11-21T04:47:00;37.38;33.90;39.92;;
37163;Laerm;23057;48.554;14.454;2023-11-21T04:49:30;37.34;32.93;39.81;;
37163;Laerm;23057;48.554;14.454;2023-11-21T04:52:01;37.34;32.93;40.13;;
37163;Laerm;23057;48.554;14.454;2023-11-21T04:54:33;37.33;32.93;39.81;;
37163;Laerm;23057;48.554;14.454;2023-11-21T04:57:05;37.34;33.90;40.03;;
37163;Laerm;23057;48.554;14.454;2023-11-21T04:59:37;37.34;33.44;39.92;;
37163;Laerm;23057;48.554;14.454;2023-11-21T05:02:08;37.30;32.93;39.92;;
37163;Laerm;23057;48.554;14.454;2023-11-21T05:04:39;37.30;32.35;40.23;;
37163;Laerm;23057;48.554;14.454;2023-11-21T05:07:10;37.31;33.90;40.03;;
37163;Laerm;23057;48.554;14.454;2023-11-21T05:09:45;37.32;33.44;40.03;;
37163;Laerm;23057;48.554;14.454;2023-11-21T05:12:16;37.30;33.90;40.03;;
37163;Laerm;23057;48.554;14.454;2023-11-21T05:14:47;37.31;33.90;39.81;;
37163;Laerm;23057;48.554;14.454;2023-11-21T05:17:19;37.29;33.44;40.23;;
37163;Laerm;23057;48.554;14.454;2023-11-21T05:19:50;37.29;32.93;39.81;;
37163;Laerm;23057;48.554;14.454;2023-11-21T05:22:21;37.30;32.35;39.70;;
37163;Laerm;23057;48.554;14.454;2023-11-21T05:24:51;37.31;32.35;48.42;;
37163;Laerm;23057;48.554;14.454;2023-11-21T05:27:22;37.32;33.44;39.92;;
37163;Laerm;23057;48.554;14.454;2023-11-21T05:29:53;37.30;33.44;39.81;;
37163;Laerm;23057;48.554;14.454;2023-11-21T05:32:25;37.28;32.93;40.23;;
37163;Laerm;23057;48.554;14.454;2023-11-21T05:34:56;37.33;32.93;40.03;;
37163;Laerm;23057;48.554;14.454;2023-11-21T05:37:27;37.28;32.35;39.92;;
37163;Laerm;23057;48.554;14.454;2023-11-21T05:39:57;37.32;32.93;39.81;;
37163;Laerm;23057;48.554;14.454;2023-11-21T05:42:28;37.30;32.93;40.03;;
37163;Laerm;23057;48.554;14.454;2023-11-21T05:45:01;37.31;33.90;40.03;;
37163;Laerm;23057;48.554;14.454;2023-11-21T05:47:44;37.29;33.44;39.81;;
37163;Laerm;23057;48.554;14.454;2023-11-21T05:50:17;37.30;33.44;40.03;;
37163;Laerm;23057;48.554;14.454;2023-11-21T05:52:48;37.31;32.93;39.92;;
37163;Laerm;23057;48.554;14.454;2023-11-21T05:55:22;37.34;33.44;40.03;;
37163;Laerm;23057;48.554;14.454;2023-11-21T05:57:56;37.31;33.44;39.92;;
37163;Laerm;23057;48.554;14.454;2023-11-21T06:00:26;37.31;33.44;40.03;;
37163;Laerm;23057;48.554;14.454;2023-11-21T06:02:57;37.30;32.35;39.70;;
37163;Laerm;23057;48.554;14.454;2023-11-21T06:05:29;37.31;32.35;40.43;;
37163;Laerm;23057;48.554;14.454;2023-11-21T06:08:02;37.29;32.35;40.03;;
37163;Laerm;23057;48.554;14.454;2023-11-21T06:10:33;37.31;32.93;39.81;;
37163;Laerm;23057;48.554;14.454;2023-11-21T06:13:04;37.29;32.35;40.03;;
37163;Laerm;23057;48.554;14.454;2023-11-21T06:15:35;37.32;32.93;40.03;;
37163;Laerm;23057;48.554;14.454;2023-11-21T06:18:07;37.31;32.58;39.81;;
37163;Laerm;23057;48.554;14.454;2023-11-21T06:20:40;37.30;33.44;39.92;;
37163;Laerm;23057;48.554;14.454;2023-11-21T06:23:11;37.28;32.93;40.23;;
37163;Laerm;23057;48.554;14.454;2023-11-21T06:25:42;37.28;33.44;39.81;;
37163;Laerm;23057;48.554;14.454;2023-11-21T06:28:13;37.28;32.93;39.92;;
37163;Laerm;23057;48.554;14.454;2023-11-21T06:30:46;37.29;32.35;40.03;;
37163;Laerm;23057;48.554;14.454;2023-11-21T06:33:17;37.29;33.44;39.92;;
37163;Laerm;23057;48.554;14.454;2023-11-21T06:35:47;37.32;33.90;40.03;;
37163;Laerm;23057;48.554;14.454;2023-11-21T06:38:18;37.33;33.44;40.13;;
37163;Laerm;23057;48.554;14.454;2023-11-21T06:40:50;37.31;33.44;40.43;;
37163;Laerm;23057;48.554;14.454;2023-11-21T06:43:21;37.30;33.44;40.03;;
37163;Laerm;23057;48.554;14.454;2023-11-21T06:45:52;37.33;33.44;40.13;;
37163;Laerm;23057;48.554;14.454;2023-11-21T06:48:23;37.35;32.35;39.92;;
37163;Laerm;23057;48.554;14.454;2023-11-21T06:50:54;37.33;32.93;40.13;;
37163;Laerm;23057;48.554;14.454;2023-11-21T06:53:25;37.35;33.44;39.92;;
37163;Laerm;23057;48.554;14.454;2023-11-21T06:55:55;37.39;32.93;40.33;;
37163;Laerm;23057;48.554;14.454;2023-11-21T06:58:26;37.39;33.44;40.03;;
37163;Laerm;23057;48.554;14.454;2023-11-21T07:00:57;37.37;32.93;40.03;;
37163;Laerm;23057;48.554;14.454;2023-11-21T07:03:29;37.36;33.90;40.23;;
37163;Laerm;23057;48.554;14.454;2023-11-21T07:05:59;37.40;32.93;40.03;;
37163;Laerm;23057;48.554;14.454;2023-11-21T07:08:30;37.41;32.93;40.18;;
37163;Laerm;23057;48.554;14.454;2023-11-21T07:11:01;37.43;32.93;39.70;;
37163;Laerm;23057;48.554;14.454;2023-11-21T07:13:33;37.43;33.90;39.92;;
37163;Laerm;23057;48.554;14.454;2023-11-21T07:16:04;37.44;33.44;40.13;;
37163;Laerm;23057;48.554;14.454;2023-11-21T07:18:35;37.47;33.44;39.92;;
37163;Laerm;23057;48.554;14.454;2023-11-21T07:21:06;37.48;33.90;40.03;;
37163;Laerm;23057;48.554;14.454;2023-11-21T07:23:39;37.50;33.44;40.03;;
37163;Laerm;23057;48.554;14.454;2023-11-21T07:26:09;37.47;32.93;40.13;;
37163;Laerm;23057;48.554;14.454;2023-11-21T07:28:41;37.52;33.90;40.13;;
37163;Laerm;23057;48.554;14.454;2023-11-21T07:31:12;37.50;33.90;39.92;;
37163;Laerm;23057;48.554;14.454;2023-11-21T07:33:43;37.52;32.93;39.92;;
37163;Laerm;23057;48.554;14.454;2023-11-21T07:36:15;37.50;33.90;40.13;;
37163;Laerm;23057;48.554;14.454;2023-11-21T07:38:46;37.52;33.90;40.33;;
37163;Laerm;23057;48.554;14.454;2023-11-21T07:41:18;37.51;33.90;40.03;;
37163;Laerm;23057;48.554;14.454;2023-11-21T07:43:49;37.50;32.35;40.23;;
37163;Laerm;23057;48.554;14.454;2023-11-21T07:46:20;37.57;34.31;40.23;;
37163;Laerm;23057;48.554;14.454;2023-11-21T07:48:51;37.54;33.44;40.03;;
37163;Laerm;23057;48.554;14.454;2023-11-21T07:51:22;37.54;33.44;40.43;;
37163;Laerm;23057;48.554;14.454;2023-11-21T07:53:53;37.53;33.44;40.43;;
37163;Laerm;23057;48.554;14.454;2023-11-21T07:56:25;37.52;33.90;40.18;;
37163;Laerm;23057;48.554;14.454;2023-11-21T07:58:55;37.52;32.93;39.92;;
37163;Laerm;23057;48.554;14.454;2023-11-21T08:01:26;37.54;32.35;40.03;;
37163;Laerm;23057;48.554;14.454;2023-11-21T08:03:58;37.54;33.90;40.43;;
37163;Laerm;23057;48.554;14.454;2023-11-21T08:06:33;37.55;33.90;40.23;;
37163;Laerm;23057;48.554;14.454;2023-11-21T08:09:04;37.56;33.55;40.03;;
37163;Laerm;23057;48.554;14.454;2023-11-21T08:11:35;37.55;33.90;40.08;;
37163;Laerm;23057;48.554;14.454;2023-11-21T08:14:06;37.60;33.90;40.13;;
37163;Laerm;23057;48.554;14.454;2023-11-21T08:16:37;37.58;33.44;40.36;;
37163;Laerm;23057;48.554;14.454;2023-11-21T08:19:08;37.58;32.93;40.13;;
37163;Laerm;23057;48.554;14.454;2023-11-21T08:21:40;37.60;34.31;40.13;;
37163;Laerm;23057;48.554;14.454;2023-11-21T08:24:11;37.59;33.44;40.13;;
37163;Laerm;23057;48.554;14.454;2023-11-21T08:26:41;37.56;33.90;40.33;;
37163;Laerm;23057;48.554;14.454;2023-11-21T08:29:12;37.54;32.93;40.62;;
37163;Laerm;23057;48.554;14.454;2023-11-21T08:31:44;37.54;33.90;40.13;;
37163;Laerm;23057;48.554;14.454;2023-11-21T08:34:17;37.58;33.90;39.92;;
37163;Laerm;23057;48.554;14.454;2023-11-21T08:36:49;37.57;33.90;40.13;;
37163;Laerm;23057;48.554;14.454;2023-11-21T08:39:22;37.54;33.44;40.23;;
37163;Laerm;23057;48.554;14.454;2023-11-21T08:41:54;37.56;33.90;40.13;;
37163;Laerm;23057;48.554;14.454;2023-11-21T08:44:25;37.56;34.31;39.92;;
37163;Laerm;23057;48.554;14.454;2023-11-21T08:46:56;37.58;33.90;40.23;;
37163;Laerm;23057;48.554;14.454;2023-11-21T08:49:27;37.59;33.90;39.92;;
37163;Laerm;23057;48.554;14.454;2023-11-21T08:51:59;37.58;33.90;39.92;;
37163;Laerm;23057;48.554;14.454;2023-11-21T08:54:31;37.59;33.44;40.03;;
37163;Laerm;23057;48.554;14.454;2023-11-21T08:57:02;37.63;33.55;40.33;;
37163;Laerm;23057;48.554;14.454;2023-11-21T08:59:33;37.64;32.93;40.08;;
37163;Laerm;23057;48.554;14.454;2023-11-21T09:02:04;37.66;34.31;40.23;;
37163;Laerm;23057;48.554;14.454;2023-11-21T09:04:35;37.68;33.44;40.13;;
37163;Laerm;23057;48.554;14.454;2023-11-21T09:07:06;37.69;33.90;40.33;;
37163;Laerm;23057;48.554;14.454;2023-11-21T09:09:37;37.70;32.93;40.33;;
37163;Laerm;23057;48.554;14.454;2023-11-21T09:12:08;37.72;33.90;40.43;;
37163;Laerm;23057;48.554;14.454;2023-11-21T09:14:43;37.74;33.90;40.43;;
37163;Laerm;23057;48.554;14.454;2023-11-21T09:17:14;37.73;31.68;40.33;;
37163;Laerm;23057;48.554;14.454;2023-11-21T09:19:45;37.73;33.90;40.03;;
37163;Laerm;23057;48.554;14.454;2023-11-21T09:22:20;37.74;34.31;40.13;;
37163;Laerm;23057;48.554;14.454;2023-11-21T09:24:51;37.79;33.55;40.03;;
37163;Laerm;23057;48.554;14.454;2023-11-21T09:27:22;37.80;34.31;40.43;;
37163;Laerm;23057;48.554;14.454;2023-11-21T09:29:53;37.80;34.31;40.13;;
37163;Laerm;23057;48.554;14.454;2023-11-21T09:32:24;37.84;33.90;40.33;;
37163;Laerm;23057;48.554;14.454;2023-11-21T09:34:55;37.86;34.31;40.62;;
37163;Laerm;23057;48.554;14.454;2023-11-21T09:37:28;37.85;33.44;40.53;;
37163;Laerm;23057;48.554;14.454;2023-11-21T09:39:59;37.82;33.90;40.13;;
37163;Laerm;23057;48.554;14.454;2023-11-21T09:42:38;37.79;34.69;40.23;;
37163;Laerm;23057;48.554;14.454;2023-11-21T09:45:28;37.77;33.90;40.23;;
37163;Laerm;23057;48.554;14.454;2023-11-21T09:47:59;37.74;33.44;40.13;;
37163;Laerm;23057;48.554;14.454;2023-11-21T09:50:32;37.77;33.90;40.23;;
37163;Laerm;23057;48.554;14.454;2023-11-21T09:53:23;37.76;34.31;40.23;;
37163;Laerm;23057;48.554;14.454;2023-11-21T09:55:55;37.73;33.90;40.33;;
37163;Laerm;23057;48.554;14.454;2023-11-21T09:58:27;37.72;33.44;40.23;;
37163;Laerm;23057;48.554;14.454;2023-11-21T10:01:01;37.73;33.90;40.43;;
37163;Laerm;23057;48.554;14.454;2023-11-21T10:03:36;37.72;33.90;40.23;;
37163;Laerm;23057;48.554;14.454;2023-11-21T10:06:13;37.70;33.90;40.23;;
37163;Laerm;23057;48.554;14.454;2023-11-21T10:08:46;37.72;34.31;40.43;;
37163;Laerm;23057;48.554;14.454;2023-11-21T10:11:21;37.72;33.90;40.43;;
37163;Laerm;23057;48.554;14.454;2023-11-21T10:13:56;37.73;33.44;40.27;;
37163;Laerm;23057;48.554;14.454;2023-11-21T10:16:29;37.76;33.90;40.23;;
37163;Laerm;23057;48.554;14.454;2023-11-21T10:19:00;37.75;33.44;40.33;;
37163;Laerm;23057;48.554;14.454;2023-11-21T10:21:32;37.74;32.93;40.23;;
37163;Laerm;23057;48.554;14.454;2023-11-21T10:24:04;37.75;33.44;40.33;;
37163;Laerm;23057;48.554;14.454;2023-11-21T10:26:36;37.74;33.44;40.53;;
37163;Laerm;23057;48.554;14.454;2023-11-21T10:29:07;37.75;34.31;40.62;;
37163;Laerm;23057;48.554;14.454;2023-11-21T10:31:38;37.71;33.90;40.53;;
37163;Laerm;23057;48.554;14.454;2023-11-21T10:34:20;37.72;33.90;40.13;;
37163;Laerm;23057;48.554;14.454;2023-11-21T10:36:51;37.69;33.90;40.03;;
37163;Laerm;23057;48.554;14.454;2023-11-21T10:39:22;37.69;33.90;40.33;;
37163;Laerm;23057;48.554;14.454;2023-11-21T10:41:55;37.70;33.90;40.13;;
37163;Laerm;23057;48.554;14.454;2023-11-21T10:44:26;37.70;33.44;40.33;;
37163;Laerm;23057;48.554;14.454;2023-11-21T10:46:57;37.76;32.93;40.23;;
37163;Laerm;23057;48.554;14.454;2023-11-21T10:49:30;37.76;33.44;40.23;;
37163;Laerm;23057;48.554;14.454;2023-11-21T10:52:01;37.69;32.35;40.33;;
37163;Laerm;23057;48.554;14.454;2023-11-21T10:54:31;37.72;33.90;40.13;;
37163;Laerm;23057;48.554;14.454;2023-11-21T10:57:04;37.74;34.31;40.23;;
37163;Laerm;23057;48.554;14.454;2023-11-21T10:59:36;37.75;33.90;40.71;;
37163;Laerm;23057;48.554;14.454;2023-11-21T11:02:23;37.82;34.31;40.53;;
37163;Laerm;23057;48.554;14.454;2023-11-21T11:04:59;37.69;32.93;40.33;;
37163;Laerm;23057;48.554;14.454;2023-11-21T11:07:34;37.70;33.90;40.43;;
37163;Laerm;23057;48.554;14.454;2023-11-21T11:10:08;37.72;33.90;40.13;;
37163;Laerm;23057;48.554;14.454;2023-11-21T11:12:47;37.72;33.44;40.03;;
37163;Laerm;23057;48.554;14.454;2023-11-21T11:15:19;37.70;33.44;40.23;;
37163;Laerm;23057;48.554;14.454;2023-11-21T11:17:51;37.71;34.31;40.43;;
37163;Laerm;23057;48.554;14.454;2023-11-21T11:20:36;37.74;32.93;40.33;;
37163;Laerm;23057;48.554;14.454;2023-11-21T11:27:18;37.71;32.93;40.23;;
37163;Laerm;23057;48.554;14.454;2023-11-21T11:30:28;37.73;33.90;40.33;;
37163;Laerm;23057;48.554;14.454;2023-11-21T11:33:56;37.70;33.90;40.53;;
37163;Laerm;23057;48.554;14.454;2023-11-21T11:36:43;37.70;33.44;40.23;;
37163;Laerm;23057;48.554;14.454;2023-11-21T11:39:45;37.74;33.44;40.33;;
37163;Laerm;23057;48.554;14.454;2023-11-21T11:42:18;37.79;33.44;40.23;;
37163;Laerm;23057;48.554;14.454;2023-11-21T11:44:52;37.78;33.44;40.43;;
37163;Laerm;23057;48.554;14.454;2023-11-21T11:47:32;37.80;34.31;40.23;;
37163;Laerm;23057;48.554;14.454;2023-11-21T11:50:13;37.86;33.90;40.62;;
37163;Laerm;23057;48.554;14.454;2023-11-21T11:52:50;37.87;33.44;40.53;;
37163;Laerm;23057;48.554;14.454;2023-11-21T11:55:24;37.86;33.90;40.23;;
37163;Laerm;23057;48.554;14.454;2023-11-21T11:57:55;37.67;33.44;40.03;;
37163;Laerm;23057;48.554;14.454;2023-11-21T12:03:03;37.70;33.90;40.43;;
37163;Laerm;23057;48.554;14.454;2023-11-21T12:05:35;37.71;34.31;40.45;;
37163;Laerm;23057;48.554;14.454;2023-11-21T12:08:09;37.67;33.44;40.33;;
37163;Laerm;23057;48.554;14.454;2023-11-21T12:10:43;37.70;34.31;40.43;;
37163;Laerm;23057;48.554;14.454;2023-11-21T12:13:16;37.71;33.90;40.33;;
37163;Laerm;23057;48.554;14.454;2023-11-21T12:15:47;37.72;34.31;40.33;;
37163;Laerm;23057;48.554;14.454;2023-11-21T12:18:18;37.71;33.90;40.23;;
37163;Laerm;23057;48.554;14.454;2023-11-21T12:20:49;37.70;32.93;40.33;;
37163;Laerm;23057;48.554;14.454;2023-11-21T12:23:21;37.68;32.93;40.13;;
37163;Laerm;23057;48.554;14.454;2023-11-21T12:25:53;37.68;33.90;40.53;;
37163;Laerm;23057;48.554;14.454;2023-11-21T12:28:24;37.68;34.31;40.23;;
37163;Laerm;23057;48.554;14.454;2023-11-21T12:30:54;37.69;33.90;40.45;;
37163;Laerm;23057;48.554;14.454;2023-11-21T12:33:27;37.71;33.44;40.13;;
37163;Laerm;23057;48.554;14.454;2023-11-21T12:35:59;37.69;33.44;40.62;;
37163;Laerm;23057;48.554;14.454;2023-11-21T12:38:36;37.70;33.90;40.13;;
37163;Laerm;23057;48.554;14.454;2023-11-21T12:41:08;37.71;34.31;40.13;;
37163;Laerm;23057;48.554;14.454;2023-11-21T12:43:40;37.70;33.44;40.33;;
37163;Laerm;23057;48.554;14.454;2023-11-21T12:46:11;37.70;33.90;40.13;;
37163;Laerm;23057;48.554;14.454;2023-11-21T12:48:45;37.69;33.90;40.43;;
37163;Laerm;23057;48.554;14.454;2023-11-21T12:51:18;37.70;33.90;40.43;;
37163;Laerm;23057;48.554;14.454;2023-11-21T12:53:49;37.70;33.90;40.53;;
37163;Laerm;23057;48.554;14.454;2023-11-21T12:56:22;37.71;34.31;40.13;;
37163;Laerm;23057;48.554;14.454;2023-11-21T12:58:56;37.66;33.90;40.33;;
37163;Laerm;23057;48.554;14.454;2023-11-21T13:01:29;37.68;34.31;40.33;;
37163;Laerm;23057;48.554;14.454;2023-11-21T13:04:00;37.68;33.90;40.03;;
37163;Laerm;23057;48.554;14.454;2023-11-21T13:06:32;37.66;34.31;40.23;;
37163;Laerm;23057;48.554;14.454;2023-11-21T13:09:10;37.67;33.44;40.23;;
37163;Laerm;23057;48.554;14.454;2023-11-21T13:11:41;37.69;34.31;40.43;;
37163;Laerm;23057;48.554;14.454;2023-11-21T13:14:12;37.67;33.90;40.03;;
37163;Laerm;23057;48.554;14.454;2023-11-21T13:16:43;37.70;33.44;40.23;;
37163;Laerm;23057;48.554;14.454;2023-11-21T13:19:16;37.70;34.31;43.54;;
37163;Laerm;23057;48.554;14.454;2023-11-21T13:21:47;37.70;33.44;40.23;;
37163;Laerm;23057;48.554;14.454;2023-11-21T13:24:18;37.72;33.90;40.23;;
37163;Laerm;23057;48.554;14.454;2023-11-21T13:26:49;37.73;33.44;40.13;;
37163;Laerm;23057;48.554;14.454;2023-11-21T13:29:20;37.75;33.90;40.33;;
37163;Laerm;23057;48.554;14.454;2023-11-21T13:31:51;37.76;34.31;40.27;;
37163;Laerm;23057;48.554;14.454;2023-11-21T13:34:23;37.75;33.90;40.54;;
37163;Laerm;23057;48.554;14.454;2023-11-21T13:36:58;37.78;34.31;40.33;;
37163;Laerm;23057;48.554;14.454;2023-11-21T13:39:31;37.77;34.31;40.23;;
37163;Laerm;23057;48.554;14.454;2023-11-21T13:42:03;37.78;33.90;40.62;;
37163;Laerm;23057;48.554;14.454;2023-11-21T13:44:34;37.76;33.44;40.71;;
37163;Laerm;23057;48.554;14.454;2023-11-21T13:47:08;37.81;32.93;40.13;;
37163;Laerm;23057;48.554;14.454;2023-11-21T13:49:39;37.78;33.90;40.71;;
37163;Laerm;23057;48.554;14.454;2023-11-21T13:52:12;37.82;33.90;40.98;;
37163;Laerm;23057;48.554;14.454;2023-11-21T13:54:47;37.82;34.69;40.33;;
37163;Laerm;23057;48.554;14.454;2023-11-21T13:57:18;37.80;33.90;40.53;;
37163;Laerm;23057;48.554;14.454;2023-11-21T13:59:50;37.84;33.44;42.35;;
37163;Laerm;23057;48.554;14.454;2023-11-21T14:02:22;37.80;33.44;40.03;;
37163;Laerm;23057;48.554;14.454;2023-11-21T14:05:03;37.81;34.69;40.53;;
37163;Laerm;23057;48.554;14.454;2023-11-21T14:07:39;37.82;33.55;42.71;;